sensor_id;sensor_type;location;lat;lon;timestamp;pressure;altitude;pressure_sealevel;temperature;humidity
14089;BME280;7120;52.890;6.040;2023-07-28T00:00:31;100370.69;;;18.52;100.00
14089;BME280;7120;52.890;6.040;2023-07-28T00:02:56;100380.59;;;18.53;100.00
14089;BME280;7120;52.890;6.040;2023-07-28T00:05:21;100377.75;;;18.49;100.00
14089;BME280;7120;52.890;6.040;2023-07-28T00:07:47;100378.75;;;18.60;100.00
14089;BME280;7120;52.890;6.040;2023-07-28T00:10:12;100369.63;;;18.60;100.00
14089;BME280;7120;52.890;6.040;2023-07-28T00:12:37;100375.00;;;18.49;100.00
14089;BME280;7120;52.890;6.040;2023-07-28T00:15:03;100376.31;;;18.36;100.00
14089;BME280;7120;52.890;6.040;2023-07-28T00:17:29;100378.06;;;18.44;100.00
14089;BME280;7120;52.890;6.040;2023-07-28T00:19:54;100387.75;;;18.54;100.00
14089;BME280;7120;52.890;6.040;2023-07-28T00:22:19;100372.47;;;18.41;100.00
14089;BME280;7120;52.890;6.040;2023-07-28T00:24:45;100383.59;;;18.44;100.00
14089;BME280;7120;52.890;6.040;2023-07-28T00:27:10;100384.84;;;18.47;100.00
14089;BME280;7120;52.890;6.040;2023-07-28T00:29:38;100380.78;;;18.41;100.00
14089;BME280;7120;52.890;6.040;2023-07-28T00:32:03;100382.63;;;18.56;100.00
14089;BME280;7120;52.890;6.040;2023-07-28T00:34:29;100378.47;;;18.46;100.00
14089;BME280;7120;52.890;6.040;2023-07-28T00:36:54;100385.13;;;18.61;100.00
14089;BME280;7120;52.890;6.040;2023-07-28T00:39:19;100380.59;;;18.53;100.00
14089;BME280;7120;52.890;6.040;2023-07-28T00:41:45;100378.31;;;18.58;100.00
14089;BME280;7120;52.890;6.040;2023-07-28T00:44:10;100376.81;;;18.61;100.00
14089;BME280;7120;52.890;6.040;2023-07-28T00:46:36;100377.22;;;18.63;100.00
14089;BME280;7120;52.890;6.040;2023-07-28T00:49:01;100370.59;;;18.67;100.00
14089;BME280;7120;52.890;6.040;2023-07-28T00:51:29;100371.47;;;18.52;100.00
14089;BME280;7120;52.890;6.040;2023-07-28T00:53:55;100369.47;;;18.69;100.00
14089;BME280;7120;52.890;6.040;2023-07-28T00:56:21;100363.75;;;18.61;100.00
14089;BME280;7120;52.890;6.040;2023-07-28T00:58:47;100368.72;;;18.72;100.00
14089;BME280;7120;52.890;6.040;2023-07-28T01:01:12;100367.66;;;18.60;100.00
14089;BME280;7120;52.890;6.040;2023-07-28T01:03:38;100369.63;;;18.60;100.00
14089;BME280;7120;52.890;6.040;2023-07-28T01:08:46;100368.50;;;18.61;100.00
14089;BME280;7120;52.890;6.040;2023-07-28T01:11:14;100360.63;;;18.63;100.00
14089;BME280;7120;52.890;6.040;2023-07-28T01:13:40;100364.25;;;18.67;100.00
14089;BME280;7120;52.890;6.040;2023-07-28T01:16:06;100366.34;;;18.74;100.00
14089;BME280;7120;52.890;6.040;2023-07-28T01:18:33;100363.53;;;18.70;100.00
14089;BME280;7120;52.890;6.040;2023-07-28T01:21:01;100369.09;;;18.70;100.00
14089;BME280;7120;52.890;6.040;2023-07-28T01:23:44;100369.88;;;18.51;100.00
14089;BME280;7120;52.890;6.040;2023-07-28T01:26:15;100373.53;;;18.75;100.00
14089;BME280;7120;52.890;6.040;2023-07-28T01:28:42;100357.19;;;18.70;100.00
14089;BME280;7120;52.890;6.040;2023-07-28T01:31:08;100369.75;;;18.86;100.00
14089;BME280;7120;52.890;6.040;2023-07-28T01:33:34;100361.03;;;18.84;100.00
14089;BME280;7120;52.890;6.040;2023-07-28T01:36:00;100359.47;;;18.87;100.00
14089;BME280;7120;52.890;6.040;2023-07-28T01:38:27;100358.56;;;18.79;100.00
14089;BME280;7120;52.890;6.040;2023-07-28T01:40:52;100367.53;;;18.73;100.00
14089;BME280;7120;52.890;6.040;2023-07-28T01:43:18;100370.69;;;18.71;100.00
14089;BME280;7120;52.890;6.040;2023-07-28T01:45:44;100382.75;;;18.82;100.00
14089;BME280;7120;52.890;6.040;2023-07-28T01:48:09;100386.13;;;18.72;100.00
14089;BME280;7120;52.890;6.040;2023-07-28T01:50:35;100378.94;;;18.90;100.00
14089;BME280;7120;52.890;6.040;2023-07-28T01:53:01;100372.16;;;18.88;100.00
14089;BME280;7120;52.890;6.040;2023-07-28T01:55:27;100375.59;;;19.04;100.00
14089;BME280;7120;52.890;6.040;2023-07-28T01:57:57;100368.34;;;18.96;100.00
14089;BME280;7120;52.890;6.040;2023-07-28T02:00:23;100370.66;;;18.94;100.00
14089;BME280;7120;52.890;6.040;2023-07-28T02:02:49;100367.06;;;18.90;100.00
14089;BME280;7120;52.890;6.040;2023-07-28T02:05:14;100368.69;;;18.94;100.00
14089;BME280;7120;52.890;6.040;2023-07-28T02:07:40;100378.81;;;19.06;100.00
14089;BME280;7120;52.890;6.040;2023-07-28T02:10:06;100368.59;;;19.10;100.00
14089;BME280;7120;52.890;6.040;2023-07-28T02:12:31;100359.44;;;19.10;100.00
14089;BME280;7120;52.890;6.040;2023-07-28T02:14:57;100359.66;;;18.98;100.00
14089;BME280;7120;52.890;6.040;2023-07-28T02:17:22;100372.16;;;18.88;100.00
14089;BME280;7120;52.890;6.040;2023-07-28T02:19:47;100371.69;;;18.63;100.00
14089;BME280;7120;52.890;6.040;2023-07-28T02:22:13;100381.13;;;18.81;100.00
14089;BME280;7120;52.890;6.040;2023-07-28T02:24:38;100376.59;;;18.92;100.00
14089;BME280;7120;52.890;6.040;2023-07-28T02:27:04;100368.41;;;19.00;100.00
14089;BME280;7120;52.890;6.040;2023-07-28T02:29:29;100362.72;;;19.15;100.00
14089;BME280;7120;52.890;6.040;2023-07-28T02:31:55;100345.69;;;18.90;100.00
14089;BME280;7120;52.890;6.040;2023-07-28T02:34:20;100369.34;;;18.84;100.00
14089;BME280;7120;52.890;6.040;2023-07-28T02:36:46;100363.97;;;18.72;100.00
14089;BME280;7120;52.890;6.040;2023-07-28T02:39:12;100369.59;;;18.76;100.00
14089;BME280;7120;52.890;6.040;2023-07-28T02:41:37;100378.03;;;18.83;100.00
14089;BME280;7120;52.890;6.040;2023-07-28T02:44:02;100367.03;;;18.67;100.00
14089;BME280;7120;52.890;6.040;2023-07-28T02:46:28;100375.00;;;18.69;100.00
14089;BME280;7120;52.890;6.040;2023-07-28T02:48:53;100383.06;;;18.77;100.00
14089;BME280;7120;52.890;6.040;2023-07-28T02:51:19;100388.78;;;18.88;100.00
14089;BME280;7120;52.890;6.040;2023-07-28T02:53:44;100385.28;;;18.68;100.00
14089;BME280;7120;52.890;6.040;2023-07-28T02:56:09;100393.72;;;18.75;100.00
14089;BME280;7120;52.890;6.040;2023-07-28T02:58:35;100379.06;;;18.75;100.00
14089;BME280;7120;52.890;6.040;2023-07-28T03:01:00;100382.31;;;18.80;100.00
14089;BME280;7120;52.890;6.040;2023-07-28T03:03:25;100381.13;;;18.81;100.00
14089;BME280;7120;52.890;6.040;2023-07-28T03:05:52;100392.91;;;18.75;100.00
14089;BME280;7120;52.890;6.040;2023-07-28T03:08:18;100384.94;;;18.73;100.00
14089;BME280;7120;52.890;6.040;2023-07-28T03:10:43;100399.25;;;18.75;100.00
14089;BME280;7120;52.890;6.040;2023-07-28T03:13:08;100397.09;;;18.88;100.00
14089;BME280;7120;52.890;6.040;2023-07-28T03:15:34;100393.16;;;18.89;100.00
14089;BME280;7120;52.890;6.040;2023-07-28T03:17:59;100389.53;;;18.85;100.00
14089;BME280;7120;52.890;6.040;2023-07-28T03:20:24;100388.19;;;18.75;100.00
14089;BME280;7120;52.890;6.040;2023-07-28T03:22:50;100396.50;;;18.98;100.00
14089;BME280;7120;52.890;6.040;2023-07-28T03:25:16;100399.44;;;18.86;100.00
14089;BME280;7120;52.890;6.040;2023-07-28T03:27:41;100397.34;;;18.79;100.00
14089;BME280;7120;52.890;6.040;2023-07-28T03:30:07;100403.25;;;18.78;100.00
14089;BME280;7120;52.890;6.040;2023-07-28T03:32:35;100406.28;;;18.92;100.00
14089;BME280;7120;52.890;6.040;2023-07-28T03:35:01;100387.38;;;18.98;100.00
14089;BME280;7120;52.890;6.040;2023-07-28T03:37:26;100394.69;;;19.09;100.00
14089;BME280;7120;52.890;6.040;2023-07-28T03:39:52;100383.13;;;19.04;100.00
14089;BME280;7120;52.890;6.040;2023-07-28T03:42:17;100402.22;;;18.86;100.00
14089;BME280;7120;52.890;6.040;2023-07-28T03:44:43;100402.44;;;19.00;100.00
14089;BME280;7120;52.890;6.040;2023-07-28T03:47:08;100392.34;;;18.88;100.00
14089;BME280;7120;52.890;6.040;2023-07-28T03:49:34;100405.72;;;19.06;100.00
14089;BME280;7120;52.890;6.040;2023-07-28T03:51:59;100411.28;;;19.06;100.00
14089;BME280;7120;52.890;6.040;2023-07-28T03:54:25;100406.31;;;18.96;100.00
14089;BME280;7120;52.890;6.040;2023-07-28T03:56:50;100413.53;;;19.00;100.00
14089;BME280;7120;52.890;6.040;2023-07-28T03:59:16;100413.13;;;18.98;100.00
14089;BME280;7120;52.890;6.040;2023-07-28T04:01:41;100418.09;;;18.89;100.00
14089;BME280;7120;52.890;6.040;2023-07-28T04:04:07;100414.47;;;18.85;100.00
14089;BME280;7120;52.890;6.040;2023-07-28T04:09:05;100416.81;;;18.83;100.00
14089;BME280;7120;52.890;6.040;2023-07-28T04:11:32;100429.72;;;18.75;100.00
14089;BME280;7120;52.890;6.040;2023-07-28T04:13:57;100425.34;;;18.74;100.00
14089;BME280;7120;52.890;6.040;2023-07-28T04:16:22;100436.41;;;18.74;100.00
14089;BME280;7120;52.890;6.040;2023-07-28T04:18:48;100439.81;;;18.87;100.00
14089;BME280;7120;52.890;6.040;2023-07-28T04:21:13;100431.47;;;18.83;100.00
14089;BME280;7120;52.890;6.040;2023-07-28T04:23:38;100446.53;;;18.86;100.00
14089;BME280;7120;52.890;6.040;2023-07-28T04:26:04;100445.56;;;18.75;100.00
14089;BME280;7120;52.890;6.040;2023-07-28T04:28:29;100445.97;;;18.77;100.00
14089;BME280;7120;52.890;6.040;2023-07-28T04:30:55;100440.34;;;18.73;100.00
14089;BME280;7120;52.890;6.040;2023-07-28T04:33:20;100450.94;;;18.67;100.00
14089;BME280;7120;52.890;6.040;2023-07-28T04:35:45;100447.81;;;18.69;100.00
14089;BME280;7120;52.890;6.040;2023-07-28T04:38:11;100467.25;;;18.73;100.00
14089;BME280;7120;52.890;6.040;2023-07-28T04:40:36;100462.50;;;18.92;100.00
14089;BME280;7120;52.890;6.040;2023-07-28T04:43:01;100467.34;;;18.76;100.00
14089;BME280;7120;52.890;6.040;2023-07-28T04:45:27;100472.44;;;18.74;100.00
14089;BME280;7120;52.890;6.040;2023-07-28T04:47:52;100469.72;;;18.58;100.00
14089;BME280;7120;52.890;6.040;2023-07-28T04:50:18;100468.94;;;18.58;100.00
14089;BME280;7120;52.890;6.040;2023-07-28T04:52:43;100476.69;;;18.68;100.00
14089;BME280;7120;52.890;6.040;2023-07-28T04:55:09;100467.25;;;18.73;100.00
14089;BME280;7120;52.890;6.040;2023-07-28T04:57:34;100466.41;;;18.69;100.00
14089;BME280;7120;52.890;6.040;2023-07-28T04:59:59;100453.69;;;18.87;100.00
14089;BME280;7120;52.890;6.040;2023-07-28T05:02:25;100462.25;;;19.01;100.00
14089;BME280;7120;52.890;6.040;2023-07-28T05:04:50;100456.22;;;18.96;100.00
14089;BME280;7120;52.890;6.040;2023-07-28T05:07:15;100454.81;;;18.82;100.00
14089;BME280;7120;52.890;6.040;2023-07-28T05:09:41;100469.94;;;18.88;100.00
14089;BME280;7120;52.890;6.040;2023-07-28T05:12:06;100464.47;;;18.92;100.00
14089;BME280;7120;52.890;6.040;2023-07-28T05:14:32;100466.56;;;18.99;100.00
14089;BME280;7120;52.890;6.040;2023-07-28T05:16:57;100465.41;;;19.00;100.00
14089;BME280;7120;52.890;6.040;2023-07-28T05:19:23;100458.63;;;18.97;100.00
14089;BME280;7120;52.890;6.040;2023-07-28T05:21:48;100447.06;;;19.14;100.00
14089;BME280;7120;52.890;6.040;2023-07-28T05:24:13;100463.44;;;19.00;100.00
14089;BME280;7120;52.890;6.040;2023-07-28T05:26:39;100467.75;;;18.98;100.00
14089;BME280;7120;52.890;6.040;2023-07-28T05:29:04;100459.31;;;18.90;100.00
14089;BME280;7120;52.890;6.040;2023-07-28T05:31:29;100481.13;;;19.15;100.00
14089;BME280;7120;52.890;6.040;2023-07-28T05:33:55;100471.53;;;19.32;100.00
14089;BME280;7120;52.890;6.040;2023-07-28T05:36:20;100461.16;;;19.06;100.00
14089;BME280;7120;52.890;6.040;2023-07-28T05:38:47;100468.72;;;19.09;100.00
14089;BME280;7120;52.890;6.040;2023-07-28T05:41:13;100466.16;;;19.19;100.00
14089;BME280;7120;52.890;6.040;2023-07-28T05:43:38;100470.94;;;19.23;100.00
14089;BME280;7120;52.890;6.040;2023-07-28T05:46:04;100461.66;;;19.11;100.00
14089;BME280;7120;52.890;6.040;2023-07-28T05:48:29;100473.91;;;19.10;100.00
14089;BME280;7120;52.890;6.040;2023-07-28T05:50:54;100465.22;;;19.12;100.00
14089;BME280;7120;52.890;6.040;2023-07-28T05:53:20;100470.16;;;19.22;100.00
14089;BME280;7120;52.890;6.040;2023-07-28T05:55:49;100472.13;;;19.21;100.00
14089;BME280;7120;52.890;6.040;2023-07-28T05:58:15;100457.59;;;19.28;100.00
14089;BME280;7120;52.890;6.040;2023-07-28T06:00:40;100466.13;;;19.42;100.00
14089;BME280;7120;52.890;6.040;2023-07-28T06:03:15;100477.53;;;19.37;100.00
14089;BME280;7120;52.890;6.040;2023-07-28T06:05:41;100469.81;;;19.50;100.00
14089;BME280;7120;52.890;6.040;2023-07-28T06:08:07;100474.16;;;19.47;100.00
14089;BME280;7120;52.890;6.040;2023-07-28T06:10:33;100475.16;;;19.59;100.00
14089;BME280;7120;52.890;6.040;2023-07-28T06:12:59;100466.69;;;19.52;100.00
14089;BME280;7120;52.890;6.040;2023-07-28T06:15:24;100474.28;;;19.55;100.00
14089;BME280;7120;52.890;6.040;2023-07-28T06:17:49;100483.47;;;19.59;100.00
14089;BME280;7120;52.890;6.040;2023-07-28T06:20:15;100484.84;;;19.45;100.00
14089;BME280;7120;52.890;6.040;2023-07-28T06:22:40;100487.78;;;19.33;100.00
14089;BME280;7120;52.890;6.040;2023-07-28T06:25:06;100489.44;;;19.38;100.00
14089;BME280;7120;52.890;6.040;2023-07-28T06:27:32;100501.66;;;19.33;100.00
14089;BME280;7120;52.890;6.040;2023-07-28T06:29:58;100498.00;;;19.29;100.00
14089;BME280;7120;52.890;6.040;2023-07-28T06:32:23;100510.13;;;19.44;100.00
14089;BME280;7120;52.890;6.040;2023-07-28T06:34:49;100506.38;;;19.56;100.00
14089;BME280;7120;52.890;6.040;2023-07-28T06:37:14;100507.97;;;19.57;100.00
14089;BME280;7120;52.890;6.040;2023-07-28T06:39:40;100517.59;;;19.86;100.00
14089;BME280;7120;52.890;6.040;2023-07-28T06:42:06;100515.66;;;19.63;100.00
14089;BME280;7120;52.890;6.040;2023-07-28T06:44:31;100508.63;;;19.69;100.00
14089;BME280;7120;52.890;6.040;2023-07-28T06:46:57;100508.84;;;19.84;100.00
14089;BME280;7120;52.890;6.040;2023-07-28T06:49:22;100506.38;;;19.79;100.00
14089;BME280;7120;52.890;6.040;2023-07-28T06:51:47;100510.25;;;19.97;100.00
14089;BME280;7120;52.890;6.040;2023-07-28T06:54:13;100501.63;;;19.79;100.00
14089;BME280;7120;52.890;6.040;2023-07-28T06:56:39;100515.88;;;19.78;100.00
14089;BME280;7120;52.890;6.040;2023-07-28T06:59:05;100527.16;;;19.65;100.00
14089;BME280;7120;52.890;6.040;2023-07-28T07:01:32;100525.06;;;19.59;100.00
14089;BME280;7120;52.890;6.040;2023-07-28T07:03:57;100548.78;;;20.02;100.00
14089;BME280;7120;52.890;6.040;2023-07-28T07:06:23;100538.53;;;20.06;100.00
14089;BME280;7120;52.890;6.040;2023-07-28T07:08:48;100534.78;;;20.21;100.00
14089;BME280;7120;52.890;6.040;2023-07-28T07:11:13;100538.31;;;20.18;100.00
14089;BME280;7120;52.890;6.040;2023-07-28T07:13:39;100538.69;;;20.17;100.00
14089;BME280;7120;52.890;6.040;2023-07-28T07:16:05;100535.88;;;20.43;100.00
14089;BME280;7120;52.890;6.040;2023-07-28T07:18:31;100540.88;;;20.30;100.00
14089;BME280;7120;52.890;6.040;2023-07-28T07:21:01;100541.75;;;20.65;100.00
14089;BME280;7120;52.890;6.040;2023-07-28T07:23:27;100539.94;;;20.46;100.00
14089;BME280;7120;52.890;6.040;2023-07-28T07:25:52;100542.38;;;20.24;100.00
14089;BME280;7120;52.890;6.040;2023-07-28T07:28:18;100548.31;;;20.79;100.00
14089;BME280;7120;52.890;6.040;2023-07-28T07:30:43;100543.09;;;20.78;100.00
14089;BME280;7120;52.890;6.040;2023-07-28T07:33:08;100538.50;;;20.93;100.00
14089;BME280;7120;52.890;6.040;2023-07-28T07:35:37;100540.31;;;21.11;100.00
14089;BME280;7120;52.890;6.040;2023-07-28T07:38:04;100533.84;;;21.37;100.00
14089;BME280;7120;52.890;6.040;2023-07-28T07:40:34;100536.31;;;21.46;100.00
14089;BME280;7120;52.890;6.040;2023-07-28T07:42:59;100547.38;;;21.35;100.00
14089;BME280;7120;52.890;6.040;2023-07-28T07:45:24;100550.47;;;21.30;100.00
14089;BME280;7120;52.890;6.040;2023-07-28T07:50:15;100548.16;;;21.84;100.00
14089;BME280;7120;52.890;6.040;2023-07-28T07:52:40;100554.13;;;21.82;100.00
14089;BME280;7120;52.890;6.040;2023-07-28T07:55:06;100534.75;;;21.97;100.00
14089;BME280;7120;52.890;6.040;2023-07-28T07:57:32;100547.47;;;21.98;100.00
14089;BME280;7120;52.890;6.040;2023-07-28T07:59:57;100561.22;;;21.32;100.00
14089;BME280;7120;52.890;6.040;2023-07-28T08:02:23;100558.84;;;21.75;100.00
14089;BME280;7120;52.890;6.040;2023-07-28T08:04:49;100546.31;;;21.54;100.00
14089;BME280;7120;52.890;6.040;2023-07-28T08:07:15;100539.75;;;21.32;100.00
14089;BME280;7120;52.890;6.040;2023-07-28T08:09:41;100557.72;;;21.42;100.00
14089;BME280;7120;52.890;6.040;2023-07-28T08:12:07;100572.00;;;21.78;100.00
14089;BME280;7120;52.890;6.040;2023-07-28T08:14:33;100566.00;;;22.24;100.00
14089;BME280;7120;52.890;6.040;2023-07-28T08:16:59;100569.00;;;22.01;100.00
14089;BME280;7120;52.890;6.040;2023-07-28T08:19:25;100562.72;;;22.11;100.00
14089;BME280;7120;52.890;6.040;2023-07-28T08:21:50;100573.81;;;22.07;100.00
14089;BME280;7120;52.890;6.040;2023-07-28T08:24:16;100565.13;;;21.64;100.00
14089;BME280;7120;52.890;6.040;2023-07-28T08:26:42;100568.75;;;21.72;100.00
14089;BME280;7120;52.890;6.040;2023-07-28T08:29:07;100572.75;;;21.75;100.00
14089;BME280;7120;52.890;6.040;2023-07-28T08:31:33;100576.97;;;22.06;100.00
14089;BME280;7120;52.890;6.040;2023-07-28T08:33:58;100570.78;;;22.27;100.00
14089;BME280;7120;52.890;6.040;2023-07-28T08:36:23;100578.94;;;22.02;100.00
14089;BME280;7120;52.890;6.040;2023-07-28T08:38:49;100580.19;;;21.60;100.00
14089;BME280;7120;52.890;6.040;2023-07-28T08:43:39;100583.06;;;21.30;100.00
14089;BME280;7120;52.890;6.040;2023-07-28T08:46:05;100582.16;;;21.59;100.00
14089;BME280;7120;52.890;6.040;2023-07-28T08:48:31;100585.34;;;21.61;100.00
14089;BME280;7120;52.890;6.040;2023-07-28T08:50:56;100580.56;;;21.58;100.00
14089;BME280;7120;52.890;6.040;2023-07-28T08:53:22;100581.47;;;22.14;100.00
14089;BME280;7120;52.890;6.040;2023-07-28T08:55:47;100587.25;;;22.50;100.00
14089;BME280;7120;52.890;6.040;2023-07-28T08:58:21;100577.13;;;22.86;100.00
14089;BME280;7120;52.890;6.040;2023-07-28T09:00:47;100585.03;;;22.77;100.00
14089;BME280;7120;52.890;6.040;2023-07-28T09:03:15;100592.34;;;22.37;100.00
14089;BME280;7120;52.890;6.040;2023-07-28T09:05:43;100595.25;;;22.00;100.00
14089;BME280;7120;52.890;6.040;2023-07-28T09:08:08;100595.31;;;22.07;100.00
14089;BME280;7120;52.890;6.040;2023-07-28T09:10:47;100588.88;;;21.99;100.00
14089;BME280;7120;52.890;6.040;2023-07-28T09:13:18;100595.09;;;22.99;100.00
14089;BME280;7120;52.890;6.040;2023-07-28T09:15:44;100596.47;;;22.57;100.00
14089;BME280;7120;52.890;6.040;2023-07-28T09:18:10;100596.84;;;22.01;100.00
14089;BME280;7120;52.890;6.040;2023-07-28T09:20:39;100597.66;;;22.05;100.00
14089;BME280;7120;52.890;6.040;2023-07-28T09:23:05;100598.66;;;21.79;100.00
14089;BME280;7120;52.890;6.040;2023-07-28T09:25:33;100601.63;;;22.00;100.00
14089;BME280;7120;52.890;6.040;2023-07-28T09:27:59;100592.66;;;22.21;100.00
14089;BME280;7120;52.890;6.040;2023-07-28T09:30:25;100595.66;;;22.57;100.00
14089;BME280;7120;52.890;6.040;2023-07-28T09:32:53;100595.38;;;22.83;100.00
14089;BME280;7120;52.890;6.040;2023-07-28T09:35:19;100597.13;;;23.06;100.00
14089;BME280;7120;52.890;6.040;2023-07-28T09:37:46;100598.34;;;23.15;100.00
14089;BME280;7120;52.890;6.040;2023-07-28T09:40:14;100593.06;;;22.96;100.00
14089;BME280;7120;52.890;6.040;2023-07-28T09:42:45;100601.53;;;23.24;100.00
14089;BME280;7120;52.890;6.040;2023-07-28T09:45:15;100600.78;;;24.74;100.00
14089;BME280;7120;52.890;6.040;2023-07-28T09:47:44;100596.06;;;24.28;100.00
14089;BME280;7120;52.890;6.040;2023-07-28T09:50:10;100606.47;;;23.95;100.00
14089;BME280;7120;52.890;6.040;2023-07-28T09:52:42;100609.19;;;23.60;100.00
14089;BME280;7120;52.890;6.040;2023-07-28T09:55:09;100607.66;;;23.87;100.00
14089;BME280;7120;52.890;6.040;2023-07-28T09:57:45;100600.50;;;24.04;100.00
14089;BME280;7120;52.890;6.040;2023-07-28T10:00:13;100613.63;;;23.68;100.00
14089;BME280;7120;52.890;6.040;2023-07-28T10:02:39;100620.41;;;23.63;100.00
14089;BME280;7120;52.890;6.040;2023-07-28T10:05:08;100608.47;;;24.13;100.00
14089;BME280;7120;52.890;6.040;2023-07-28T10:07:38;100618.03;;;24.22;100.00
14089;BME280;7120;52.890;6.040;2023-07-28T10:10:08;100607.63;;;24.51;100.00
14089;BME280;7120;52.890;6.040;2023-07-28T10:12:42;100601.72;;;25.40;100.00
14089;BME280;7120;52.890;6.040;2023-07-28T10:15:15;100605.91;;;24.93;100.00
14089;BME280;7120;52.890;6.040;2023-07-28T10:17:44;100606.19;;;25.27;100.00
14089;BME280;7120;52.890;6.040;2023-07-28T10:25:32;100618.44;;;23.99;100.00
14089;BME280;7120;52.890;6.040;2023-07-28T10:27:59;100613.63;;;24.28;100.00
14089;BME280;7120;52.890;6.040;2023-07-28T10:30:24;100608.00;;;24.75;100.00
14089;BME280;7120;52.890;6.040;2023-07-28T10:32:49;100611.25;;;24.48;100.00
14089;BME280;7120;52.890;6.040;2023-07-28T10:37:47;100611.63;;;24.54;100.00
14089;BME280;7120;52.890;6.040;2023-07-28T10:42:48;100618.81;;;23.73;100.00
14089;BME280;7120;52.890;6.040;2023-07-28T10:45:13;100613.25;;;24.08;100.00
14089;BME280;7120;52.890;6.040;2023-07-28T10:47:41;100607.66;;;24.48;100.00
14089;BME280;7120;52.890;6.040;2023-07-28T10:50:10;100612.06;;;24.13;100.00
14089;BME280;7120;52.890;6.040;2023-07-28T10:52:42;100609.63;;;24.61;100.00
14089;BME280;7120;52.890;6.040;2023-07-28T10:55:16;100624.00;;;24.63;100.00
14089;BME280;7120;52.890;6.040;2023-07-28T10:57:42;100618.81;;;24.62;100.00
14089;BME280;7120;52.890;6.040;2023-07-28T11:00:09;100623.25;;;24.42;100.00
14089;BME280;7120;52.890;6.040;2023-07-28T11:02:47;100623.19;;;24.59;100.00
14089;BME280;7120;52.890;6.040;2023-07-28T11:05:18;100624.44;;;24.26;100.00
14089;BME280;7120;52.890;6.040;2023-07-28T11:07:44;100635.59;;;24.16;100.00
14089;BME280;7120;52.890;6.040;2023-07-28T11:10:10;100636.31;;;23.52;100.00
14089;BME280;7120;52.890;6.040;2023-07-28T11:12:47;100633.22;;;24.00;100.00
14089;BME280;7120;52.890;6.040;2023-07-28T11:15:14;100639.13;;;24.73;100.00
14089;BME280;7120;52.890;6.040;2023-07-28T11:17:40;100631.97;;;24.69;100.00
14089;BME280;7120;52.890;6.040;2023-07-28T11:22:42;100635.59;;;24.01;100.00
14089;BME280;7120;52.890;6.040;2023-07-28T11:25:08;100631.63;;;23.92;100.00
14089;BME280;7120;52.890;6.040;2023-07-28T11:27:37;100641.19;;;23.83;100.00
14089;BME280;7120;52.890;6.040;2023-07-28T11:30:04;100639.16;;;24.59;100.00
14089;BME280;7120;52.890;6.040;2023-07-28T11:32:31;100632.81;;;24.26;100.00
14089;BME280;7120;52.890;6.040;2023-07-28T11:35:07;100643.19;;;23.83;100.00
14089;BME280;7120;52.890;6.040;2023-07-28T11:37:34;100649.91;;;23.61;100.00
14089;BME280;7120;52.890;6.040;2023-07-28T11:40:05;100643.19;;;23.87;100.00
14089;BME280;7120;52.890;6.040;2023-07-28T11:42:41;100650.78;;;24.00;100.00
14089;BME280;7120;52.890;6.040;2023-07-28T11:45:08;100657.91;;;23.66;100.00
14089;BME280;7120;52.890;6.040;2023-07-28T11:47:35;100654.38;;;23.90;100.00
14089;BME280;7120;52.890;6.040;2023-07-28T11:50:01;100655.97;;;24.09;100.00
14089;BME280;7120;52.890;6.040;2023-07-28T11:52:34;100651.56;;;23.90;100.00
14089;BME280;7120;52.890;6.040;2023-07-28T11:55:02;100651.59;;;24.19;100.00
14089;BME280;7120;52.890;6.040;2023-07-28T11:57:29;100645.19;;;24.61;100.00
14089;BME280;7120;52.890;6.040;2023-07-28T11:59:58;100655.34;;;25.32;100.00
14089;BME280;7120;52.890;6.040;2023-07-28T12:02:27;100655.81;;;25.19;100.00
14089;BME280;7120;52.890;6.040;2023-07-28T12:04:54;100655.56;;;24.14;100.00
14089;BME280;7120;52.890;6.040;2023-07-28T12:07:31;100663.53;;;23.87;100.00
14089;BME280;7120;52.890;6.040;2023-07-28T12:10:05;100653.97;;;23.84;100.00
14089;BME280;7120;52.890;6.040;2023-07-28T12:15:29;100654.25;;;24.97;100.00
14089;BME280;7120;52.890;6.040;2023-07-28T12:18:07;100636.88;;;25.45;100.00
14089;BME280;7120;52.890;6.040;2023-07-28T12:20:40;100655.28;;;25.42;100.00
14089;BME280;7120;52.890;6.040;2023-07-28T12:23:07;100660.56;;;25.23;100.00
14089;BME280;7120;52.890;6.040;2023-07-28T12:25:34;100650.25;;;25.05;100.00
14089;BME280;7120;52.890;6.040;2023-07-28T12:28:01;100665.56;;;24.19;100.00
14089;BME280;7120;52.890;6.040;2023-07-28T12:30:26;100675.84;;;23.65;100.00
14089;BME280;7120;52.890;6.040;2023-07-28T12:32:52;100675.88;;;23.79;100.00
14089;BME280;7120;52.890;6.040;2023-07-28T12:35:17;100682.69;;;23.92;100.00
14089;BME280;7120;52.890;6.040;2023-07-28T12:37:44;100673.56;;;24.34;100.00
14089;BME280;7120;52.890;6.040;2023-07-28T12:40:10;100678.72;;;24.29;100.00
14089;BME280;7120;52.890;6.040;2023-07-28T12:42:35;100672.72;;;24.59;100.00
14089;BME280;7120;52.890;6.040;2023-07-28T12:45:01;100673.13;;;24.29;100.00
14089;BME280;7120;52.890;6.040;2023-07-28T12:47:26;100666.75;;;24.68;100.00
14089;BME280;7120;52.890;6.040;2023-07-28T12:49:52;100665.91;;;24.88;100.00
14089;BME280;7120;52.890;6.040;2023-07-28T12:52:18;100675.47;;;24.80;100.00
14089;BME280;7120;52.890;6.040;2023-07-28T12:54:43;100678.75;;;24.61;100.00
14089;BME280;7120;52.890;6.040;2023-07-28T12:57:10;100679.53;;;24.61;100.00
14089;BME280;7120;52.890;6.040;2023-07-28T12:59:37;100676.56;;;25.26;100.00
14089;BME280;7120;52.890;6.040;2023-07-28T13:02:03;100670.97;;;25.99;100.00
14089;BME280;7120;52.890;6.040;2023-07-28T13:04:28;100684.28;;;26.40;100.00
14089;BME280;7120;52.890;6.040;2023-07-28T13:06:54;100669.91;;;27.13;100.00
14089;BME280;7120;52.890;6.040;2023-07-28T13:09:20;100678.28;;;27.47;100.00
14089;BME280;7120;52.890;6.040;2023-07-28T13:11:45;100661.50;;;27.74;100.00